Weather observations for the past three days for
LaGrange-Callaway Airport
Metric (Imperial)
Date Time (edt) Wind (kph) Vis. (km) Weather Sky Cond. Temperature (ºC) Relative Humidity Wind Chill (°C) Heat Index (°C) Pressure Precipitation (cm)
Air Dwpt 6 hour altimeter (cm) sea level (mb) 1 hr 3 hr 6 hr
Max. Min.
06 01:35 Calm 16.09 Fair CLR 18 14 78% 76.05 0.0
06 01:15 S 6 16.09 Fair CLR 16 13 83% 76.05 0.0
06 00:55 Calm 16.09 Fair CLR 16 12 77% 76.07 0.0
06 00:35 Calm 16.09 Fair CLR 17 12 73% 76.1 0.0
06 00:15 Calm 16.09 Fair CLR 18 12 68% 76.1 0.0
05 23:55 Calm 16.09 Fair CLR 17 12 73% 76.07 0.0
05 23:35 Calm 16.09 Fair CLR 18 12 68% 76.07 0.0
05 23:15 Calm 16.09 Fair CLR 17 12 73% 76.07 0.0
05 22:55 Calm 16.09 Fair CLR 18 12 68% 76.07 0.0
05 22:35 Calm 16.09 Fair CLR 18 11 64% 76.05 0.0
05 22:15 Calm 16.09 Fair CLR 19 11 60% 76.07 0.0
05 21:55 Calm 16.09 Fair CLR 19 11 60% 76.07 0.0
05 21:35 Calm 16.09 Fair CLR 20 11 56% 76.07 0.0
05 21:15 Calm 16.09 Partly Cloudy SCT070 20 10 53% 76.05 0.0
05 20:55 Calm 16.09 Mostly Cloudy BKN070 20 11 56% 76.05 0.0
05 20:35 Calm 16.09 Fair CLR 21 10 50% 76.05 0.0
05 20:15 SE 6 16.09 Fair CLR 21 10 50% 76.05 0.0
05 19:55 S 7 16.09 Partly Cloudy SCT120 22 10 47% 76.07 0.0
05 19:35 S 11 16.09 Partly Cloudy SCT120 23 11 47% 76.05 0.0
05 19:15 S 9 16.09 Fair CLR 25 10 39% 26 76.07 0.0
05 18:55 S 9 16.09 Fair CLR 25 10 39% 26 76.07 0.0
05 18:35 S 19 G 28 16.09 Fair CLR 25 10 39% 26 76.05 0.0
05 18:15 S 17 16.09 Fair CLR 26 10 37% 26 76.02 0.0
05 17:55 SW 15 16.09 Fair CLR 26 10 37% 26 76.05 0.0
05 17:35 S 13 16.09 Fair CLR 25 10 39% 26 76.07 0.0
05 17:15 SE 11 16.09 Fair CLR 25 8 34% 26 76.05 0.0
05 16:55 S 9 16.09 Fair CLR 25 8 34% 26 76.07 0.0
05 16:35 S 7 16.09 Fair CLR 25 9 36% 26 76.07 0.0
05 16:15 S 22 G 30 16.09 Fair CLR 25 8 34% 26 76.1 0.0
05 15:55 S 11 G 17 16.09 Fair CLR 25 8 34% 26 76.1 0.0
05 15:35 S 13 16.09 Fair CLR 24 8 36% 25 76.15 0.0
05 15:15 S 11 16.09 Fair CLR 24 8 36% 25 76.15 0.0
05 14:55 S 9 16.09 Fair CLR 24 8 36% 25 76.17 0.0
05 14:35 S 15 16.09 Fair CLR 25 8 34% 26 76.17 0.0
05 14:15 S 15 16.09 Fair CLR 24 8 36% 25 76.23 0.0
05 13:55 SW 15 16.09 Fair CLR 24 8 36% 25 76.23 0.0
05 13:35 S 15 16.09 Fair CLR 23 7 36% 76.25 0.0
05 13:15 SW 15 16.09 Fair CLR 23 8 38% 76.25 0.0
05 12:55 S 19 G 31 16.09 Fair CLR 23 7 36% 76.25 0.0
05 12:35 S 17 G 30 16.09 Fair CLR 22 10 47% 76.28 0.0
05 12:15 S 17 16.09 Fair CLR 22 10 47% 76.3 0.0
05 11:35 S 17 16.09 Fair CLR 21 10 50% 76.3 0.0
05 11:15 S 15 16.09 Fair CLR 21 10 50% 76.3 0.0
05 10:55 S 13 16.09 Fair CLR 20 11 56% 76.3 0.0
05 10:35 S 15 16.09 Fair CLR 20 11 56% 76.3 0.0
05 10:15 S 13 16.09 Fair CLR 19 11 60% 76.3 0.0
05 09:55 S 15 16.09 Fair CLR 18 11 64% 76.3 0.0
05 09:35 S 19 G 26 16.09 Fair CLR 17 11 68% 76.28 0.0
05 09:15 SE 6 16.09 Fair CLR 17 11 68% 76.23 0.0
05 08:55 Calm 16.09 Fair CLR 15 11 77% 76.23 0.0
05 08:35 Calm 16.09 Fair CLR 13 10 82% 76.17 0.0
05 08:15 Calm 16.09 Fair CLR 12 9 82% 76.17 0.0
05 07:55 Calm 16.09 Fair CLR 10 8 88% 76.17 0.0
05 07:35 Calm 16.09 Fair CLR 8 7 93% 76.15 0.0
05 07:15 Calm 16.09 Fair CLR 8 7 93% 76.12 0.0
05 06:55 Calm 16.09 Fair CLR 8 7 93% 76.12 0.0
05 06:35 Calm 11.27 Fair CLR 6 5 93% 76.15 0.0
05 06:15 Calm 16.09 Fair CLR 7 7 100% 76.15 0.0
05 05:55 Calm 16.09 Fair CLR 8 7 93% 76.17 0.0
05 05:35 Calm 11.27 Fair CLR 8 7 93% 76.17 0.0
05 05:15 Calm 16.09 Fair CLR 8 7 93% 76.17 0.0
05 04:55 Calm 16.09 Fair CLR 8 7 93% 76.17 0.0
05 04:35 Calm 16.09 Fair CLR 9 7 87% 76.2 0.0
05 04:15 Calm 16.09 Fair CLR 9 7 87% 76.2 0.0
05 03:55 Calm 16.09 Fair CLR 9 8 94% 76.17 0.0
05 03:35 Calm 16.09 Fair CLR 8 8 100% 76.17 0.0
05 03:15 Calm 16.09 Fair CLR 10 7 82% 76.17 0.0
05 02:55 Calm 16.09 Fair CLR 10 7 82% 76.17 0.0
05 02:35 Calm 16.09 Fair CLR 10 8 88% 76.17 0.0
05 02:15 Calm 16.09 Fair CLR 10 8 88% 76.17 0.0
05 01:55 Calm 16.09 Fair CLR 9 7 87% 76.17 0.0
05 01:35 Calm 16.09 Fair CLR 11 8 82% 76.17 0.0
05 01:15 Calm 16.09 Fair CLR 11 8 82% 76.17 0.0
05 00:55 Calm 16.09 Fair CLR 11 8 82% 76.17 0.0
05 00:35 Calm 16.09 Fair CLR 12 8 77% 76.17 0.0
05 00:15 Calm 16.09 Fair CLR 12 9 82% 76.15 0.0
04 23:55 Calm 16.09 Fair CLR 12 9 82% 76.17 0.0
04 23:35 Calm 16.09 Fair CLR 12 9 82% 76.17 0.0
04 23:15 Calm 16.09 Fair CLR 12 9 82% 76.17 0.0
04 22:55 Calm 16.09 Fair CLR 13 9 77% 76.17 0.0
04 22:35 Calm 16.09 Fair CLR 13 10 82% 76.17 0.0
04 22:15 Calm 16.09 Fair CLR 15 10 72% 76.17 0.0
04 21:55 Calm 16.09 Fair CLR 15 10 72% 76.15 0.0
04 21:35 Calm 16.09 Fair CLR 16 10 68% 76.15 0.0
04 21:15 Calm 16.09 Fair CLR 16 10 68% 76.12 0.0
04 20:55 Calm 16.09 Fair CLR 17 10 64% 76.12 0.0
04 20:35 Calm 16.09 Fair CLR 19 8 49% 76.12 0.0
04 20:15 Calm 16.09 Fair CLR 20 8 46% 76.1 0.0
04 19:55 S 6 16.09 Fair CLR 22 7 38% 76.1 0.0
04 19:35 Calm 16.09 Fair CLR 22 9 44% 76.12 0.0
04 19:15 S 6 16.09 Fair CLR 23 8 38% 76.1 0.0
04 18:55 S 9 16.09 Fair CLR 23 6 33% 76.12 0.0
04 18:35 S 15 16.09 Fair CLR 25 7 32% 25 76.12 0.0
04 18:15 S 7 16.09 Fair CLR 24 6 31% 25 76.12 0.0
04 17:55 S 15 16.09 Fair CLR 25 7 32% 25 76.12 0.0
04 17:35 S 15 16.09 Fair CLR 25 7 32% 25 76.12 0.0
04 17:15 S 7 16.09 Fair CLR 25 6 30% 25 76.12 0.0
04 16:55 S 13 16.09 Fair CLR 26 7 30% 26 76.12 0.0
04 16:35 SW 9 16.09 Fair CLR 25 6 30% 25 76.15 0.0
04 16:15 S 7 16.09 Fair CLR 25 6 30% 25 76.15 0.0
04 15:55 S 7 16.09 Fair CLR 25 6 30% 25 76.17 0.0
04 15:35 W 6 16.09 Fair CLR 25 6 30% 25 76.2 0.0
04 15:15 Calm 16.09 Fair CLR 24 5 29% 25 76.2 0.0
04 14:55 Calm 16.09 Fair CLR 24 6 31% 25 76.23 0.0
04 14:35 N 6 16.09 Fair CLR 23 5 31% 76.25 0.0
04 13:55 Calm 16.09 Fair CLR 23 6 33% 76.3 0.0
04 13:35 W 6 16.09 Fair CLR 23 6 33% 76.3 0.0
04 13:15 Calm 16.09 Fair CLR 22 6 36% 76.33 0.0
04 12:55 NW 6 16.09 Fair CLR 22 6 36% 76.35 0.0
04 12:35 Calm 16.09 Fair CLR 21 5 35% 76.38 0.0
04 12:15 NW 9 16.09 Fair CLR 21 6 38% 76.38 0.0
04 11:55 NW 7 16.09 Fair CLR 21 7 40% 76.38 0.0
04 11:35 W 7 16.09 Fair CLR 21 7 40% 76.4 0.0
04 11:15 Calm 16.09 Fair CLR 21 7 40% 76.4 0.0
04 10:55 Calm 16.09 Fair CLR 20 6 40% 76.43 0.0
04 10:35 SW 7 16.09 Fair CLR 19 6 43% 76.43 0.0
04 10:15 SW 7 16.09 Fair CLR 18 7 49% 76.45 0.0
04 09:55 S 6 16.09 Fair CLR 17 6 49% 76.45 0.0
04 09:35 Calm 16.09 Fair CLR 15 9 68% 76.45 0.0
04 09:15 Calm 16.09 Fair CLR 13 9 77% 76.45 0.0
04 08:55 Calm 16.09 Fair CLR 12 8 77% 76.43 0.0
04 08:35 Calm 16.09 Fair CLR 10 7 82% 76.43 0.0
04 07:55 Calm 16.09 Fair CLR 7 5 87% 76.43 0.0
04 07:35 Calm 16.09 Fair CLR 5 5 100% 76.4 0.0
04 07:15 Calm 16.09 Fair CLR 5 4 93% 76.4 0.0
04 06:55 Calm 16.09 Fair CLR 4 3 93% 76.4 0.0
04 06:35 Calm 16.09 Fair CLR 5 4 93% 76.38 0.0
04 06:15 Calm 16.09 Fair CLR 5 4 93% 76.38 0.0
04 05:55 Calm 16.09 Fair CLR 5 4 93% 76.38 0.0
04 05:35 Calm 16.09 Fair CLR 5 5 100% 76.38 0.0
04 05:15 Calm 2.41 Fog/Mist VV007 5 4 93% 76.38 0.0
04 04:55 Calm 16.09 Fair CLR 5 5 100% 76.38 0.0
04 04:35 Calm 16.09 Fair CLR 5 5 100% 76.38 0.0
04 04:15 Calm 16.09 Fair CLR 5 5 100% 76.38 0.0
04 03:55 Calm 16.09 Fair CLR 5 5 100% 76.38 0.0
04 03:35 Calm 16.09 Fair CLR 6 5 93% 76.38 0.0
04 03:15 Calm 16.09 Fair CLR 6 5 93% 76.4 0.0
04 02:55 Calm 1.21 Fog/Mist VV005 5 5 100% 76.4 0.0
04 02:35 Calm 16.09 Fair CLR 6 5 93% 76.43 0.0
04 02:15 Calm 16.09 Fair CLR 7 6 93% 76.43 0.0
04 01:55 Calm 1.61 Fog/Mist VV007 6 6 100% 76.43 0.0
04 01:35 Calm 3.22 Fog/Mist CLR 7 6 93% 76.45 0.0
04 01:15 Calm 8.05 Fog/Mist CLR 7 6 93% 76.45 0.0
04 00:55 Calm 16.09 Fair CLR 8 6 87% 76.45 0.0
04 00:35 Calm 16.09 Fair CLR 8 7 93% 76.48 0.0
04 00:15 Calm 16.09 Fair CLR 8 7 93% 76.48 0.0
03 23:55 Calm 16.09 Fair CLR 8 7 93% 76.45 0.0
03 23:35 Calm 16.09 Fair CLR 9 6 82% 76.48 0.0
03 23:15 Calm 16.09 Fair CLR 10 6 76% 76.48 0.0
03 22:55 Calm 16.09 Fair CLR 10 6 76% 76.45 0.0
03 22:35 Calm 16.09 Fair CLR 10 6 76% 76.45 0.0
03 22:15 Calm 16.09 Fair CLR 10 7 82% 76.43 0.0
03 21:55 Calm 16.09 Fair CLR 11 6 72% 76.4 0.0
03 21:35 Calm 16.09 Fair CLR 12 5 63% 76.38 0.0
03 21:15 Calm 16.09 Fair CLR 13 6 63% 76.38 0.0
03 20:55 Calm 16.09 Fair CLR 15 6 55% 76.35 0.0
03 20:35 Calm 16.09 Fair CLR 16 7 55% 76.35 0.0
03 20:15 Calm 16.09 Fair CLR 17 5 45% 76.33 0.0
03 19:55 W 7 16.09 Fair CLR 18 5 43% 76.33 0.0
03 19:35 W 11 16.09 Fair CLR 20 3 33% 76.33 0.0
03 19:15 W 9 16.09 Fair CLR 21 3 31% 76.33 0.0
03 18:55 NW 11 16.09 Fair CLR 21 2 29% 76.33 0.0
03 18:35 NW 11 16.09 Fair CLR 21 2 29% 76.33 0.0
03 18:15 NW 9 16.09 Fair CLR 21 1 27% 76.33 0.0
03 17:55 N 15 16.09 Fair CLR 21 1 27% 76.35 0.0
03 17:35 NW 6 16.09 Fair CLR 21 3 31% 76.35 0.0
03 17:15 Calm 16.09 Fair CLR 21 2 29% 76.38 0.0
03 16:55 NW 15 16.09 Fair CLR 21 2 29% 76.38 0.0
03 16:35 NW 13 16.09 Fair CLR 21 2 29% 76.38 0.0
03 16:15 NW 13 G 26 16.09 Fair CLR 21 2 29% 76.4 0.0
03 15:55 N 13 16.09 Fair CLR 21 3 31% 76.43 0.0
03 15:35 N 7 G 17 4.83 Fair with Haze CLR 21 2 29% 76.45 0.0
03 15:15 N 13 16.09 Fair CLR 21 2 29% 76.45 0.0
03 14:55 N 9 16.09 Fair CLR 20 2 30% 76.5 0.0
03 14:35 W 7 16.09 Fair CLR 20 3 33% 76.5 0.0
03 14:15 W 15 16.09 Fair CLR 20 3 33% 76.53 0.0
03 13:55 NW 13 G 26 16.09 Fair CLR 19 3 35% 76.56 0.0
03 13:35 W 6 G 30 16.09 Fair CLR 18 3 37% 76.56 0.0
03 13:15 NW 13 G 26 16.09 Fair CLR 19 3 35% 76.58 0.0
03 12:55 W 19 16.09 Fair CLR 18 2 34% 76.61 0.0
03 12:35 N 6 16.09 Fair CLR 18 4 40% 76.61 0.0
03 12:15 W 17 16.09 Fair CLR 17 5 45% 76.63 0.0
03 11:55 W 9 G 15 16.09 Fair CLR 17 4 42% 76.63 0.0
03 11:35 NW 17 G 30 16.09 Fair CLR 17 3 39% 76.63 0.0
03 11:15 W 15 16.09 Fair CLR 17 4 42% 76.63 0.0
03 10:55 Calm 16.09 Fair CLR 16 5 48% 76.63 0.0
03 10:35 Calm 16.09 Fair CLR 16 4 45% 76.63 0.0
03 10:15 Calm 16.09 Fair CLR 15 6 55% 76.63 0.0
03 09:55 Calm 16.09 Fair CLR 14 5 55% 76.63 0.0
03 09:35 N 6 16.09 Fair CLR 13 6 63% 76.63 0.0
03 09:15 N 7 16.09 Fair CLR 13 6 63% 76.61 0.0
03 08:55 N 6 16.09 Fair CLR 11 7 77% 76.61 0.0
03 08:35 Calm 16.09 Fair CLR 10 7 82% 76.61 0.0
03 08:15 Calm 16.09 Fair CLR 8 6 87% 76.58 0.0
03 07:55 Calm 16.09 Fair CLR 6 5 93% 76.56 0.0
03 07:35 Calm 16.09 Fair CLR 5 4 93% 76.56 0.0
03 07:15 Calm 16.09 Fair CLR 4 3 93% 76.53 0.0
03 06:35 Calm 1.21 Fog/Mist VV005 4 4 100% 76.5 0.0
03 06:15 Calm 0.40 Fog VV002 3 3 100% 76.5 0.0
03 05:55 Calm 16.09 Fair CLR 5 4 93% 76.5 0.0
03 05:35 Calm 0.80 Light Drizzle VV005 5 4 93% 76.48 0.0
03 05:15 Calm 4.83 Fog/Mist CLR 5 4 93% 76.48 0.0
03 04:55 Calm 4.83 Fog/Mist CLR 5 4 93% 76.48 0.0
03 04:35 Calm 16.09 Fair CLR 5 5 100% 76.48 0.0
03 04:15 Calm 16.09 Fair CLR 5 5 100% 76.45 0.0
03 03:55 Calm 16.09 Fair CLR 5 5 100% 76.43 0.0
03 03:35 Calm 16.09 Fair CLR 5 5 100% 76.43 0.0
03 03:15 Calm 16.09 Fair CLR 5 5 100% 76.4 0.0
03 02:55 Calm 16.09 Fair CLR 6 5 93% 76.4 0.0
03 02:35 Calm 2.41 Light Drizzle VV007 5 5 100% 76.38 0.0
03 02:15 Calm 16.09 Fair CLR 6 5 93% 76.38 0.0
03 01:55 Calm 16.09 Fair CLR 5 5 100% 76.38 0.0
Date Time (edt) Wind (kph) Vis. (km) Weather Sky Cond. Air Dwpt Max. Min. Relative Humidity Wind Chill (°C) Heat Index (°C) altimeter (cm) sea level (mb) 1 hr 3 hr 6 hr
6 hour
Temperature (ºC) Pressure Precipitation (cm)